Sunday, March 24, 2019, 7:59 PM EDT
Back to Local

KFMH, Otis Air National Guard Base

Location: Mashpee, MA, United States Lat: 41.65
Local Time: 7:59 PM EDT (23:59 GMT) Lon: -70.517
Time Zone: US/Eastern Elev: 131 ft

Show me the last for .
Show Decoded

2019-03-24 19:35 METAR KFMH 242335Z 24017KT 10SM CLR 06/M02 A2997 RMK AO2 FZRANO =
2019-03-24 19:15 METAR KFMH 242315Z AUTO 23019G24KT 10SM CLR 06/M02 A2998 RMK AO2 FZRANO =
2019-03-24 18:55 METAR KFMH 242255Z AUTO 24014G22KT 10SM CLR 06/M01 A2998 RMK AO2 FZRANO =
2019-03-24 18:35 METAR KFMH 242235Z AUTO 23018KT 10SM CLR 06/M01 A2998 RMK AO2 FZRANO =
2019-03-24 18:15 METAR KFMH 242215Z AUTO 23016G24KT 10SM CLR 06/M02 A2998 RMK AO2 FZRANO =
2019-03-24 17:55 METAR KFMH 242155Z 23015KT 10SM CLR 06/M03 A2998 RMK AO2 FZRANO =
2019-03-24 17:35 METAR KFMH 242135Z 22014G22KT 10SM CLR 06/M02 A2998 RMK AO2 FZRANO =
2019-03-24 17:15 METAR KFMH 242115Z 22016G23KT 10SM CLR 06/M02 A2999 RMK AO2 FZRANO =
2019-03-24 16:55 METAR KFMH 242055Z AUTO 22011G21KT 10SM CLR 06/M02 A3000 RMK AO2 FZRANO =
2019-03-24 16:35 METAR KFMH 242035Z AUTO 22016G23KT 10SM CLR 06/M03 A3000 RMK AO2 FZRANO =
2019-03-24 16:15 METAR KFMH 242015Z AUTO 22016G22KT 10SM CLR 06/M05 A3000 RMK AO2 FZRANO =
2019-03-24 15:55 METAR KFMH 241955Z 23020G27KT 10SM CLR 07/M04 A3000 RMK AO2 FZRANO =
2019-03-24 15:35 METAR KFMH 241935Z 22020G26KT 10SM CLR 07/M04 A3000 RMK AO2 FZRANO =
2019-03-24 15:15 METAR KFMH 241915Z 23016G26KT 10SM CLR 08/M03 A3001 RMK AO2 FZRANO =
2019-03-24 14:55 METAR KFMH 241855Z AUTO 22016G31KT 10SM CLR 09/M03 A3001 RMK AO2 FZRANO =
2019-03-24 14:35 METAR KFMH 241835Z AUTO 23017G24KT 10SM CLR 09/M05 A3001 RMK AO2 FZRANO =
2019-03-24 14:15 METAR KFMH 241815Z AUTO 24020G26KT 10SM CLR 09/M04 A3002 RMK AO2 FZRANO =
2019-03-24 13:55 METAR KFMH 241755Z AUTO 23019KT 10SM CLR 09/M03 A3003 RMK AO2 FZRANO =
2019-03-24 13:35 METAR KFMH 241735Z AUTO 22020KT 10SM CLR 09/M03 A3003 RMK AO2 FZRANO =
2019-03-24 13:15 METAR KFMH 241715Z AUTO 23016G22KT 10SM CLR 09/M03 A3004 RMK AO2 FZRANO =
2019-03-24 12:55 METAR KFMH 241655Z AUTO 23018KT 10SM CLR 09/M04 A3005 RMK AO2 FZRANO =
2019-03-24 12:35 METAR KFMH 241635Z AUTO 24013G18KT 10SM CLR 09/M04 A3004 RMK AO2 FZRANO =
2019-03-24 12:15 METAR KFMH 241615Z AUTO 22016KT 10SM CLR 09/M06 A3005 RMK AO2 FZRANO =
2019-03-24 11:55 METAR KFMH 241555Z AUTO 24013KT 10SM CLR 08/M06 A3005 RMK AO2 FZRANO =
2019-03-24 11:35 METAR KFMH 241535Z AUTO 24012KT 10SM CLR 08/M06 A3006 RMK AO2 FZRANO =
2019-03-24 11:15 METAR KFMH 241515Z AUTO 26012KT 10SM CLR 07/M07 A3007 RMK AO2 FZRANO =
2019-03-24 10:55 METAR KFMH 241455Z AUTO 27013KT 10SM CLR 06/M07 A3009 RMK AO2 FZRANO =
2019-03-24 10:35 METAR KFMH 241435Z AUTO 25015KT 10SM CLR 06/M07 A3009 RMK AO2 FZRANO =
2019-03-24 10:15 METAR KFMH 241415Z AUTO 26010KT 10SM CLR 06/M07 A3009 RMK AO2 FZRANO =
2019-03-24 09:55 METAR KFMH 241355Z AUTO 25012KT 10SM CLR 05/M07 A3009 RMK AO2 FZRANO =
2019-03-24 09:35 METAR KFMH 241335Z AUTO 25011G17KT 10SM CLR 04/M08 A3009 RMK AO2 FZRANO =
2019-03-24 09:15 METAR KFMH 241315Z AUTO 26013KT 10SM CLR 04/M08 A3009 RMK AO2 FZRANO =
2019-03-24 08:55 METAR KFMH 241255Z AUTO 27010G17KT 10SM CLR 03/M08 A3009 RMK AO2 FZRANO =
2019-03-24 08:35 METAR KFMH 241235Z AUTO 27011KT 10SM CLR 03/M08 A3010 RMK AO2 FZRANO =
2019-03-24 08:15 METAR KFMH 241215Z AUTO 27010KT 10SM CLR 02/M08 A3009 RMK AO2 FZRANO =
2019-03-24 07:55 METAR KFMH 241155Z AUTO 26010KT 10SM CLR 02/M08 A3009 RMK AO2 FZRANO =
2019-03-24 07:35 METAR KFMH 241135Z AUTO 25006KT 10SM CLR 01/M08 A3008 RMK AO2 FZRANO =
2019-03-24 07:15 METAR KFMH 241115Z AUTO 26006KT 10SM CLR M01/M08 A3008 RMK AO2 FZRANO =
2019-03-24 06:55 METAR KFMH 241055Z AUTO 25007KT 10SM CLR M01/M09 A3007 RMK AO2 FZRANO =
2019-03-24 06:35 METAR KFMH 241035Z AUTO 24006KT 10SM CLR M02/M09 A3007 RMK AO2 FZRANO =
2019-03-24 06:15 METAR KFMH 241015Z AUTO 26010KT 10SM CLR M01/M09 A3007 RMK AO2 FZRANO =
2019-03-24 05:55 METAR KFMH 240955Z AUTO 25008KT 10SM CLR M01/M10 A3006 RMK AO2 FZRANO =
2019-03-24 05:35 METAR KFMH 240935Z AUTO 25008KT 10SM CLR M02/M10 A3006 RMK AO2 FZRANO =
2019-03-24 05:15 METAR KFMH 240915Z AUTO 27006KT 10SM CLR M02/M11 A3005 RMK AO2 FZRANO =
2019-03-24 04:55 METAR KFMH 240855Z AUTO 29005G11KT 10SM CLR M01/M10 A3005 RMK AO2 FZRANO =
2019-03-24 04:35 METAR KFMH 240835Z AUTO 28007KT 10SM CLR M02/M10 A3004 RMK AO2 FZRANO =
2019-03-24 04:15 METAR KFMH 240815Z AUTO 29007KT 10SM CLR M01/M10 A3003 RMK AO2 FZRANO =
2019-03-24 03:55 METAR KFMH 240755Z AUTO 28009G15KT 10SM CLR M01/M10 A3003 RMK AO2 FZRANO =
2019-03-24 03:35 METAR KFMH 240735Z AUTO 29009KT 10SM CLR M01/M10 A3003 RMK AO2 FZRANO =
2019-03-24 03:15 METAR KFMH 240715Z AUTO 28008G14KT 10SM CLR M01/M10 A3002 RMK AO2 FZRANO =
2019-03-24 02:55 METAR KFMH 240655Z AUTO 30013KT 10SM CLR M00/M11 A3002 RMK AO2 FZRANO =
2019-03-24 02:35 METAR KFMH 240635Z AUTO 29011KT 10SM CLR M01/M11 A3001 RMK AO2 FZRANO =
2019-03-24 02:15 METAR KFMH 240615Z AUTO 29010KT 10SM CLR M00/M10 A3001 RMK AO2 FZRANO =
2019-03-24 01:55 METAR KFMH 240555Z AUTO 29011KT 10SM CLR M00/M10 A3001 RMK AO2 FZRANO =
2019-03-24 01:35 METAR KFMH 240535Z AUTO 28010KT 10SM CLR M00/M10 A3000 RMK AO2 FZRANO =
2019-03-24 01:15 METAR KFMH 240515Z AUTO 30010KT 10SM CLR M00/M10 A2999 RMK AO2 FZRANO =
2019-03-24 00:55 METAR KFMH 240455Z AUTO 30010KT 10SM CLR 00/M10 A2999 RMK AO2 FZRANO =
2019-03-24 00:35 METAR KFMH 240435Z AUTO 29010G20KT 10SM CLR 00/M10 A2998 RMK AO2 FZRANO =
2019-03-24 00:15 METAR KFMH 240415Z AUTO 30014G19KT 10SM CLR 01/M10 A2997 RMK AO2 FZRANO =
2019-03-23 23:55 METAR KFMH 240355Z AUTO 29013G20KT 10SM CLR 01/M09 A2996 RMK AO2 FZRANO =
2019-03-23 23:35 METAR KFMH 240335Z AUTO 29011KT 10SM CLR 01/M09 A2996 RMK AO2 FZRANO =
2019-03-23 23:15 METAR KFMH 240315Z AUTO 30013KT 10SM CLR 01/M10 A2994 RMK AO2 FZRANO =
2019-03-23 22:55 METAR KFMH 240255Z AUTO 29017G23KT 10SM CLR 02/M10 A2993 RMK AO2 FZRANO =
2019-03-23 22:35 METAR KFMH 240235Z AUTO 29017KT 10SM CLR 02/M09 A2993 RMK AO2 FZRANO =
2019-03-23 22:15 METAR KFMH 240215Z AUTO 29014G27KT 10SM CLR 02/M09 A2992 RMK AO2 FZRANO =
2019-03-23 21:55 METAR KFMH 240155Z AUTO 29018G27KT 10SM CLR 03/M08 A2990 RMK AO2 FZRANO =
2019-03-23 21:35 METAR KFMH 240135Z AUTO 30021KT 10SM CLR 03/M08 A2989 RMK AO2 FZRANO =
2019-03-23 21:15 METAR KFMH 240115Z AUTO 29016KT 10SM CLR 03/M07 A2989 RMK AO2 FZRANO =
2019-03-23 20:55 METAR KFMH 240055Z AUTO 28014G20KT 10SM CLR 03/M06 A2988 RMK AO2 FZRANO =
2019-03-23 20:35 METAR KFMH 240035Z AUTO 29017KT 10SM CLR 04/M06 A2987 RMK AO2 FZRANO =
2019-03-23 20:15 METAR KFMH 240015Z AUTO 30015G24KT 10SM CLR 04/M06 A2985 RMK AO2 FZRANO =

Support USWX by starting your Amazon purchase here.